Time;durP1;ratioP1;P1;durP2;ratioP2;P2;SDS_P1;SDS_P2;PMS_P1;PMS_P2;Temp;Humidity;BMP_temperature;BMP_pressure;BME280_temperature;BME280_humidity;BME280_pressure;Samples;Min_cycle;Max_cycle;Signal;HPM_P1;HPM_P2
2020/12/28 00:01:59;;;;;;;30.65;15.90;;;1.80;68.30;;;;;;5055755;28;20025;-74
2020/12/28 00:04:25;;;;;;;31.27;14.93;;;1.80;68.20;;;;;;5056149;28;20096;-74
2020/12/28 00:06:51;;;;;;;29.55;13.13;;;1.80;68.00;;;;;;5056577;28;20377;-74
2020/12/28 00:09:17;;;;;;;30.05;14.32;;;1.90;68.00;;;;;;5055626;28;20025;-75
2020/12/28 00:11:42;;;;;;;27.70;14.27;;;1.80;67.70;;;;;;5057149;28;20041;-74
2020/12/28 00:14:09;;;;;;;27.80;14.15;;;1.90;67.80;;;;;;5056811;28;20031;-74
2020/12/28 00:16:34;;;;;;;31.13;14.82;;;1.80;67.60;;;;;;5056493;28;20036;-74
2020/12/28 00:19:00;;;;;;;29.65;14.60;;;1.80;67.50;;;;;;5057061;28;20025;-74
2020/12/28 00:21:26;;;;;;;25.33;13.73;;;1.80;67.50;;;;;;5056862;28;20446;-73
2020/12/28 00:23:52;;;;;;;27.08;13.27;;;1.80;67.50;;;;;;5056887;28;20445;-74
2020/12/28 00:26:18;;;;;;;28.52;13.80;;;1.80;67.40;;;;;;5055062;28;20143;-73
2020/12/28 00:28:44;;;;;;;33.95;14.88;;;1.80;67.40;;;;;;5055217;28;20338;-73
2020/12/28 00:31:10;;;;;;;27.33;14.57;;;1.80;67.40;;;;;;5056383;28;20091;-73
2020/12/28 00:33:37;;;;;;;27.48;13.50;;;1.80;67.30;;;;;;5056056;28;20029;-72
2020/12/28 00:36:03;;;;;;;27.80;13.73;;;1.80;67.40;;;;;;5056272;28;20115;-74
2020/12/28 00:38:29;;;;;;;26.45;13.20;;;1.80;67.50;;;;;;5056401;28;20110;-73
2020/12/28 00:40:54;;;;;;;27.60;14.98;;;1.80;67.40;;;;;;5056510;28;20017;-74
2020/12/28 00:43:20;;;;;;;29.35;14.05;;;1.80;67.30;;;;;;5055623;28;20021;-73
2020/12/28 00:45:46;;;;;;;28.25;15.27;;;1.80;67.40;;;;;;5056607;28;20360;-73
2020/12/28 00:48:12;;;;;;;29.42;15.18;;;1.80;67.40;;;;;;5055701;28;20021;-73
2020/12/28 00:50:38;;;;;;;29.98;14.90;;;1.80;67.50;;;;;;5056150;28;20078;-74
2020/12/28 00:53:04;;;;;;;26.15;13.73;;;1.80;67.40;;;;;;5055922;28;20052;-73
2020/12/28 00:55:29;;;;;;;24.92;11.90;;;1.90;67.50;;;;;;5054707;28;20116;-73
2020/12/28 00:57:55;;;;;;;23.92;11.30;;;1.90;67.20;;;;;;5056047;28;20055;-73
2020/12/28 01:00:21;;;;;;;21.77;11.13;;;1.90;67.00;;;;;;5056273;28;20021;-74
2020/12/28 01:02:46;;;;;;;24.83;11.57;;;1.80;67.00;;;;;;5055352;28;20021;-73
2020/12/28 01:05:12;;;;;;;26.63;11.75;;;1.80;67.00;;;;;;5056192;28;20506;-74
2020/12/28 01:07:38;;;;;;;27.17;12.05;;;1.70;67.20;;;;;;5054559;28;20024;-74
2020/12/28 01:10:03;;;;;;;23.80;11.57;;;1.70;67.30;;;;;;5054540;28;20020;-73
2020/12/28 01:12:31;;;;;;;26.27;12.18;;;1.70;67.40;;;;;;5055660;28;20075;-73
2020/12/28 01:14:57;;;;;;;21.52;11.45;;;1.70;67.40;;;;;;5055610;28;20037;-73
2020/12/28 01:17:23;;;;;;;23.75;11.75;;;1.60;67.40;;;;;;5055336;28;20051;-73
2020/12/28 01:19:49;;;;;;;25.92;12.85;;;1.60;67.50;;;;;;5055907;28;20040;-72
2020/12/28 01:22:14;;;;;;;26.90;12.50;;;1.60;67.60;;;;;;5054367;28;20021;-74
2020/12/28 01:24:40;;;;;;;25.30;12.80;;;1.60;67.70;;;;;;5056110;28;20103;-73
2020/12/28 01:27:06;;;;;;;33.30;14.57;;;1.60;67.80;;;;;;5054449;28;20449;-72
2020/12/28 01:29:31;;;;;;;29.83;14.30;;;1.50;67.80;;;;;;5055792;28;20028;-73
2020/12/28 01:31:57;;;;;;;35.28;14.23;;;1.60;68.00;;;;;;5055901;28;20352;-74
2020/12/28 01:34:23;;;;;;;34.97;15.13;;;1.60;68.00;;;;;;5055110;28;20095;-73
2020/12/28 01:36:49;;;;;;;29.83;13.38;;;1.60;68.10;;;;;;5053376;28;20048;-73
2020/12/28 01:39:14;;;;;;;29.48;14.18;;;1.70;68.10;;;;;;5055332;28;20063;-72
2020/12/28 01:41:40;;;;;;;33.67;14.98;;;1.70;68.00;;;;;;5055142;28;20075;-74
2020/12/28 01:44:06;;;;;;;34.72;15.43;;;1.70;67.90;;;;;;5055440;28;20100;-73
2020/12/28 01:46:31;;;;;;;45.47;20.70;;;1.70;67.90;;;;;;5054842;28;20017;-73
2020/12/28 01:48:57;;;;;;;52.10;22.73;;;1.80;67.90;;;;;;5055601;28;20028;-74
2020/12/28 01:51:25;;;;;;;54.90;22.05;;;1.80;67.70;;;;;;5053734;28;20135;-74
2020/12/28 01:53:51;;;;;;;47.08;20.73;;;1.80;68.20;;;;;;5054654;28;20125;-74
2020/12/28 01:56:20;;;;;;;44.17;18.45;;;1.80;67.50;;;;;;5054954;28;20037;-73
2020/12/28 01:58:46;;;;;;;37.63;16.33;;;1.80;67.40;;;;;;5054851;28;20039;-74
2020/12/28 02:01:15;;;;;;;35.22;16.17;;;1.80;67.20;;;;;;5054983;28;20450;-73
2020/12/28 02:03:41;;;;;;;36.78;16.38;;;1.80;67.30;;;;;;5055002;28;20025;-73
2020/12/28 02:06:06;;;;;;;34.85;13.93;;;1.80;67.30;;;;;;5054738;28;20029;-74
2020/12/28 02:08:32;;;;;;;29.88;13.80;;;1.80;67.40;;;;;;5053665;28;20025;-74
2020/12/28 02:10:58;;;;;;;30.10;13.90;;;1.80;67.20;;;;;;5054199;28;20461;-73
2020/12/28 02:13:23;;;;;;;30.48;14.10;;;1.80;67.30;;;;;;5054317;28;20029;-73
2020/12/28 02:15:49;;;;;;;28.17;13.32;;;1.80;67.30;;;;;;5054445;28;20067;-73
2020/12/28 02:18:18;;;;;;;23.40;11.45;;;1.80;67.20;;;;;;5053225;28;20024;-74
2020/12/28 02:20:43;;;;;;;29.00;12.63;;;1.90;67.20;;;;;;5052945;28;20027;-73
2020/12/28 02:23:09;;;;;;;25.13;11.70;;;1.80;67.10;;;;;;5054949;28;20021;-73
2020/12/28 02:25:35;;;;;;;25.60;11.57;;;1.90;67.10;;;;;;5053118;28;20025;-74
2020/12/28 02:28:00;;;;;;;25.75;11.77;;;1.90;67.00;;;;;;5054047;28;20013;-73
2020/12/28 02:30:26;;;;;;;24.92;11.13;;;1.90;66.90;;;;;;5054518;28;20103;-73
2020/12/28 02:32:52;;;;;;;24.25;10.95;;;1.90;66.90;;;;;;5054220;28;20020;-74
2020/12/28 02:35:17;;;;;;;25.70;12.00;;;1.80;66.90;;;;;;5053799;28;20162;-73
2020/12/28 02:37:43;;;;;;;25.35;10.50;;;1.80;66.90;;;;;;5052926;28;20024;-74
2020/12/28 02:40:09;;;;;;;27.17;12.82;;;1.80;66.90;;;;;;5054345;28;20024;-74
2020/12/28 02:42:34;;;;;;;25.73;10.63;;;1.90;67.10;;;;;;5052823;28;20162;-73
2020/12/28 02:45:00;;;;;;;24.25;11.05;;;1.90;67.00;;;;;;5053691;28;20074;-73
2020/12/28 02:47:26;;;;;;;24.05;11.88;;;1.80;67.00;;;;;;5054024;28;20517;-74
2020/12/28 02:49:52;;;;;;;20.17;10.32;;;1.90;67.10;;;;;;5054239;28;20023;-74
2020/12/28 02:52:17;;;;;;;24.50;11.55;;;1.90;67.00;;;;;;5053882;28;20365;-73
2020/12/28 02:54:43;;;;;;;26.55;11.50;;;2.00;67.10;;;;;;5052575;28;20025;-73
2020/12/28 02:57:09;;;;;;;24.60;12.25;;;2.00;66.90;;;;;;5054063;28;20032;-74
2020/12/28 02:59:34;;;;;;;26.52;12.02;;;2.00;66.70;;;;;;5053481;28;20471;-74
2020/12/28 03:02:00;;;;;;;25.90;10.88;;;2.10;66.80;;;;;;5053522;28;20021;-72
2020/12/28 03:04:26;;;;;;;29.20;11.93;;;2.10;66.60;;;;;;5052465;28;20064;-72
2020/12/28 03:06:51;;;;;;;24.27;12.02;;;2.10;66.50;;;;;;5053962;28;20342;-73
2020/12/28 03:09:17;;;;;;;26.15;12.80;;;2.10;66.60;;;;;;5053669;28;20025;-73
2020/12/28 03:11:44;;;;;;;27.92;13.55;;;2.10;66.30;;;;;;5053477;28;20068;-73
2020/12/28 03:14:10;;;;;;;29.33;14.18;;;2.20;66.40;;;;;;5053303;28;20071;-74
2020/12/28 03:16:36;;;;;;;29.35;14.02;;;2.20;66.50;;;;;;5052342;28;20025;-73
2020/12/28 03:19:02;;;;;;;27.73;13.13;;;2.30;66.50;;;;;;5053464;28;20028;-74
2020/12/28 03:21:27;;;;;;;32.00;12.77;;;2.30;66.30;;;;;;5052240;28;20032;-73
2020/12/28 03:23:53;;;;;;;25.88;13.10;;;2.30;66.40;;;;;;5053549;28;20024;-73
2020/12/28 03:26:19;;;;;;;28.65;13.38;;;2.40;66.00;;;;;;5052508;28;20055;-73
2020/12/28 03:28:44;;;;;;;28.35;13.82;;;2.40;65.90;;;;;;5053194;28;20020;-74
2020/12/28 03:31:10;;;;;;;28.20;14.65;;;2.40;65.90;;;;;;5053369;28;20112;-73
2020/12/28 03:33:36;;;;;;;28.30;14.38;;;2.40;65.80;;;;;;5052695;28;20025;-73
2020/12/28 03:36:01;;;;;;;30.90;14.48;;;2.40;65.70;;;;;;5053867;28;20029;-73
2020/12/28 03:38:28;;;;;;;24.25;13.32;;;2.40;65.80;;;;;;5052123;28;20024;-73
2020/12/28 03:40:54;;;;;;;30.58;14.23;;;2.40;65.70;;;;;;5053375;28;20048;-74
2020/12/28 03:43:20;;;;;;;28.25;13.70;;;2.50;65.80;;;;;;5051930;28;20480;-74
2020/12/28 03:45:45;;;;;;;28.33;13.15;;;2.50;65.60;;;;;;5053310;28;20028;-72
2020/12/28 03:48:11;;;;;;;29.73;13.15;;;2.50;65.50;;;;;;5053478;28;20443;-73
2020/12/28 03:50:37;;;;;;;21.48;10.80;;;2.50;65.50;;;;;;5052916;28;20396;-74
2020/12/28 03:53:02;;;;;;;21.83;11.23;;;2.50;65.40;;;;;;5053423;28;20021;-73
2020/12/28 03:55:28;;;;;;;23.33;12.80;;;2.50;65.40;;;;;;5053067;28;20120;-73
2020/12/28 03:57:54;;;;;;;24.45;11.23;;;2.50;65.30;;;;;;5053447;28;20032;-73
2020/12/28 04:00:19;;;;;;;24.33;11.68;;;2.50;65.40;;;;;;5053422;28;20044;-72
2020/12/28 04:02:45;;;;;;;23.15;11.43;;;2.50;65.50;;;;;;5053469;28;20052;-74
2020/12/28 04:05:11;;;;;;;23.75;12.10;;;2.50;65.50;;;;;;5053346;28;20025;-73
2020/12/28 04:07:37;;;;;;;22.50;11.32;;;2.60;65.50;;;;;;5053263;28;20412;-73
2020/12/28 04:10:03;;;;;;;24.27;11.65;;;2.60;65.20;;;;;;5052684;28;20033;-73
2020/12/28 04:12:29;;;;;;;28.33;12.18;;;2.60;65.10;;;;;;5035282;28;20053;-72
2020/12/28 04:14:54;;;;;;;27.40;12.13;;;2.60;65.20;;;;;;5053067;28;20452;-73
2020/12/28 04:17:20;;;;;;;29.60;13.57;;;2.60;65.30;;;;;;5052972;28;20036;-73
2020/12/28 04:19:45;;;;;;;24.35;12.70;;;2.60;65.40;;;;;;5052928;28;20399;-73
2020/12/28 04:22:11;;;;;;;28.23;11.45;;;2.70;65.10;;;;;;5052640;28;20044;-73
2020/12/28 04:24:37;;;;;;;25.25;11.45;;;2.70;65.10;;;;;;5051596;28;20075;-72
2020/12/28 04:27:02;;;;;;;24.65;11.60;;;2.70;65.00;;;;;;5053108;28;20060;-73
2020/12/28 04:29:28;;;;;;;23.25;10.82;;;2.70;64.90;;;;;;5052038;28;20127;-72
2020/12/28 04:31:54;;;;;;;24.17;10.65;;;2.70;65.00;;;;;;5053351;28;20020;-73
2020/12/28 04:34:19;;;;;;;20.15;9.75;;;2.70;64.90;;;;;;5052961;28;20047;-72
2020/12/28 04:36:45;;;;;;;21.30;10.70;;;2.70;64.80;;;;;;5053273;28;20025;-73
2020/12/28 04:39:11;;;;;;;22.95;10.73;;;2.70;64.80;;;;;;5056369;28;20033;-73
2020/12/28 04:41:36;;;;;;;19.48;10.40;;;2.70;64.80;;;;;;5056413;28;20457;-74
2020/12/28 04:44:03;;;;;;;19.33;10.63;;;2.70;64.70;;;;;;5056595;28;20476;-74
2020/12/28 04:46:30;;;;;;;20.95;9.48;;;2.70;64.60;;;;;;5056763;28;20036;-74
2020/12/28 04:48:56;;;;;;;21.15;9.95;;;2.80;64.60;;;;;;5056284;28;20021;-74
2020/12/28 04:51:23;;;;;;;17.38;9.30;;;2.80;64.50;;;;;;5056193;28;20025;-74
2020/12/28 04:53:51;;;;;;;18.88;10.05;;;2.80;64.50;;;;;;5056014;28;20032;-75
2020/12/28 04:56:18;;;;;;;20.77;10.25;;;2.80;64.50;;;;;;5056331;28;20369;-74
2020/12/28 04:58:44;;;;;;;19.08;10.50;;;2.80;64.40;;;;;;5055979;28;20029;-73
2020/12/28 05:01:10;;;;;;;23.65;9.95;;;2.90;64.40;;;;;;5055824;28;20505;-72
2020/12/28 05:03:36;;;;;;;20.63;10.18;;;2.80;64.40;;;;;;5056398;28;20036;-71
2020/12/28 05:06:01;;;;;;;22.27;11.40;;;2.80;64.40;;;;;;5054697;28;20028;-72
2020/12/28 05:08:27;;;;;;;28.77;13.57;;;2.90;64.80;;;;;;5055373;28;20350;-73
2020/12/28 05:10:53;;;;;;;31.45;14.70;;;2.90;65.10;;;;;;5055473;28;20059;-71
2020/12/28 05:13:19;;;;;;;33.28;16.35;;;3.00;65.20;;;;;;5055601;28;20021;-74
2020/12/28 05:15:55;;;;;;;32.17;15.40;;;2.90;65.10;;;;;;5054333;28;20029;-72
2020/12/28 05:18:21;;;;;;;35.45;16.42;;;2.90;65.40;;;;;;5055562;28;20028;-74
2020/12/28 05:20:47;;;;;;;33.92;15.75;;;2.90;65.40;;;;;;5055301;28;20033;-74
2020/12/28 05:23:14;;;;;;;33.80;16.60;;;2.80;65.70;;;;;;5054014;28;20032;-73
2020/12/28 05:25:45;;;;;;;27.42;14.30;;;2.80;65.80;;;;;;5055451;28;20021;-74
2020/12/28 05:28:25;;;;;;;35.50;15.60;;;2.70;65.90;;;;;;5055392;28;20025;-74
2020/12/28 05:30:51;;;;;;;30.30;15.43;;;2.70;66.10;;;;;;5055041;28;20104;-73
2020/12/28 05:33:18;;;;;;;33.65;16.67;;;2.70;66.10;;;;;;5053575;28;20055;-73
2020/12/28 05:35:45;;;;;;;36.03;15.57;;;2.70;66.30;;;;;;5055485;28;20029;-73
2020/12/28 05:38:12;;;;;;;37.17;16.90;;;2.60;66.40;;;;;;5038069;28;20499;-73
2020/12/28 05:40:39;;;;;;;37.70;16.58;;;2.60;66.60;;;;;;5055372;28;20461;-73
2020/12/28 05:43:05;;;;;;;30.67;15.90;;;2.60;66.70;;;;;;5054387;28;20017;-73
2020/12/28 05:45:32;;;;;;;33.15;16.65;;;2.60;66.80;;;;;;5055624;28;20017;-74
2020/12/28 05:47:59;;;;;;;33.17;16.52;;;2.60;66.90;;;;;;5055464;28;20411;-74
2020/12/28 05:50:34;;;;;;;38.80;17.58;;;2.60;66.90;;;;;;5056078;28;20025;-76
2020/12/28 05:53:02;;;;;;;33.30;16.13;;;2.60;67.00;;;;;;5054939;28;20048;-74
2020/12/28 05:55:30;;;;;;;31.02;15.63;;;2.60;67.10;;;;;;5055026;28;20036;-76
2020/12/28 05:57:57;;;;;;;33.33;16.05;;;2.60;67.20;;;;;;5054808;28;20406;-75
2020/12/28 06:00:25;;;;;;;34.13;15.30;;;2.50;67.20;;;;;;5054065;28;20172;-76
2020/12/28 06:02:51;;;;;;;38.55;17.10;;;2.60;67.50;;;;;;5053158;28;20029;-76
2020/12/28 06:05:19;;;;;;;34.88;16.55;;;2.60;67.50;;;;;;5054665;28;20033;-75
2020/12/28 06:07:46;;;;;;;32.20;16.45;;;2.60;67.40;;;;;;5053446;28;20025;-75
2020/12/28 06:10:13;;;;;;;32.63;15.57;;;2.60;67.30;;;;;;5053342;28;20029;-76
2020/12/28 06:12:40;;;;;;;28.63;15.10;;;2.60;67.30;;;;;;5053018;28;20045;-74
2020/12/28 06:15:19;;;;;;;31.98;14.88;;;2.70;67.50;;;;;;5054029;28;20044;-74
2020/12/28 06:17:44;;;;;;;35.15;15.82;;;2.70;67.40;;;;;;5052954;28;20029;-73
2020/12/28 06:20:11;;;;;;;35.25;15.18;;;2.70;67.30;;;;;;5054079;28;20047;-75
2020/12/28 06:22:38;;;;;;;33.40;15.25;;;2.70;67.30;;;;;;5052850;28;20571;-75
2020/12/28 06:25:11;;;;;;;29.30;14.93;;;2.70;67.20;;;;;;5054209;28;20361;-75
2020/12/28 06:27:42;;;;;;;37.53;16.42;;;2.70;67.10;;;;;;5052767;28;20032;-76
2020/12/28 06:30:09;;;;;;;31.45;15.50;;;2.70;67.30;;;;;;5053705;28;20014;-74
2020/12/28 06:32:35;;;;;;;31.63;15.82;;;2.70;67.50;;;;;;5053885;28;20139;-75
2020/12/28 06:35:07;;;;;;;34.78;15.43;;;2.70;67.60;;;;;;5054186;28;20024;-74
2020/12/28 06:37:53;;;;;;;34.90;16.58;;;2.70;67.70;;;;;;5054422;28;20134;-73
2020/12/28 06:40:32;;;;;;;28.45;14.88;;;2.70;67.70;;;;;;5054342;28;20017;-72
2020/12/28 06:43:18;;;;;;;35.95;15.48;;;2.70;67.50;;;;;;5053837;28;20013;-74
2020/12/28 06:45:47;;;;;;;32.90;15.68;;;2.70;67.40;;;;;;5053831;28;20029;-73
2020/12/28 06:48:30;;;;;;;33.05;15.90;;;2.70;67.40;;;;;;5054316;28;20024;-73
2020/12/28 06:51:06;;;;;;;41.13;15.18;;;2.70;67.50;;;;;;5053810;28;20059;-75
2020/12/28 06:53:32;;;;;;;37.08;15.13;;;2.70;67.30;;;;;;5053385;28;20028;-74
2020/12/28 06:56:08;;;;;;;28.38;14.55;;;2.70;67.20;;;;;;5053623;28;20104;-74
2020/12/28 06:58:35;;;;;;;32.38;14.32;;;2.70;67.20;;;;;;5053965;28;20096;-74
2020/12/28 07:01:05;;;;;;;33.80;15.07;;;2.60;67.10;;;;;;5051760;28;20364;-74
2020/12/28 07:03:33;;;;;;;28.65;13.98;;;2.60;67.20;;;;;;5053622;28;20025;-75
2020/12/28 07:06:04;;;;;;;30.83;15.68;;;2.60;67.30;;;;;;5053412;28;20024;-74
2020/12/28 07:08:32;;;;;;;28.48;15.10;;;2.60;67.60;;;;;;5053519;28;20025;-74
2020/12/28 07:11:00;;;;;;;33.13;14.57;;;2.70;67.80;;;;;;5053380;28;20099;-75
2020/12/28 07:13:25;;;;;;;31.38;14.85;;;2.70;67.70;;;;;;5053244;28;20025;-74
2020/12/28 07:15:59;;;;;;;31.48;15.30;;;2.80;67.50;;;;;;5053192;28;20025;-74
2020/12/28 07:18:24;;;;;;;35.15;15.73;;;2.90;67.50;;;;;;5053594;28;20048;-76
2020/12/28 07:21:01;;;;;;;36.05;15.52;;;2.90;67.20;;;;;;5052225;28;20021;-74
2020/12/28 07:23:27;;;;;;;40.42;15.85;;;2.90;67.00;;;;;;5053274;28;20457;-74
2020/12/28 07:26:12;;;;;;;35.65;16.40;;;2.90;67.00;;;;;;5053687;28;20028;-73
2020/12/28 07:28:40;;;;;;;39.60;16.15;;;2.90;67.10;;;;;;5053108;28;20096;-75
2020/12/28 07:31:07;;;;;;;32.90;15.23;;;3.00;67.00;;;;;;5053041;28;20031;-75
2020/12/28 07:33:34;;;;;;;28.48;15.18;;;3.00;66.90;;;;;;5051840;28;20086;-75
2020/12/28 07:36:06;;;;;;;34.17;16.67;;;3.00;66.70;;;;;;5053335;28;20060;-74
2020/12/28 07:38:32;;;;;;;34.90;16.55;;;3.00;67.00;;;;;;5053216;28;20033;-76
2020/12/28 07:40:59;;;;;;;32.78;15.73;;;3.00;67.10;;;;;;5052366;28;20111;-74
2020/12/28 07:43:26;;;;;;;30.92;16.02;;;3.00;67.30;;;;;;5051977;28;20071;-73
2020/12/28 07:45:52;;;;;;;30.35;15.07;;;3.10;67.20;;;;;;5052909;28;20025;-75
2020/12/28 07:48:20;;;;;;;28.83;14.57;;;3.10;67.10;;;;;;5051677;28;20025;-75
2020/12/28 07:50:53;;;;;;;32.80;15.93;;;3.10;66.90;;;;;;5053033;28;20029;-76
2020/12/28 07:53:25;;;;;;;30.13;14.73;;;3.10;66.70;;;;;;5052907;28;20021;-76
2020/12/28 07:55:57;;;;;;;35.58;16.63;;;3.10;66.60;;;;;;5053798;28;20036;-74
2020/12/28 07:58:32;;;;;;;26.00;14.15;;;3.10;66.80;;;;;;5052819;28;20017;-75
2020/12/28 08:01:02;;;;;;;30.60;15.55;;;3.10;66.80;;;;;;5052075;28;20021;-75
2020/12/28 08:03:34;;;;;;;31.80;14.98;;;3.00;66.80;;;;;;5051416;28;20032;-73
2020/12/28 08:06:04;;;;;;;45.72;15.57;;;3.00;66.90;;;;;;5052751;28;20124;-73
2020/12/28 08:08:29;;;;;;;35.60;15.52;;;3.00;66.80;;;;;;5051942;28;20055;-75
2020/12/28 08:11:00;;;;;;;33.42;15.52;;;3.00;66.90;;;;;;5052805;28;20107;-74
2020/12/28 08:13:27;;;;;;;30.45;14.63;;;3.00;67.00;;;;;;5055939;28;20021;-74
2020/12/28 08:15:53;;;;;;;34.63;16.63;;;2.90;67.00;;;;;;5055340;28;20029;-74
2020/12/28 08:18:19;;;;;;;31.85;15.90;;;3.00;67.20;;;;;;5055569;28;20044;-75
2020/12/28 08:20:56;;;;;;;36.78;16.20;;;3.00;67.20;;;;;;5056503;28;20017;-75
2020/12/28 08:23:26;;;;;;;30.95;15.32;;;3.00;67.20;;;;;;5056612;28;20100;-75
2020/12/28 08:25:52;;;;;;;38.55;16.25;;;3.00;67.20;;;;;;5056509;28;20024;-75
2020/12/28 08:28:19;;;;;;;30.45;13.27;;;3.00;67.40;;;;;;5056884;28;20021;-75
2020/12/28 08:30:44;;;;;;;37.53;14.48;;;3.10;67.20;;;;;;5055674;28;20025;-75
2020/12/28 08:33:10;;;;;;;38.67;15.65;;;3.10;67.00;;;;;;5056386;28;20044;-75
2020/12/28 08:35:49;;;;;;;31.90;15.93;;;3.10;67.00;;;;;;5056011;28;20037;-75
2020/12/28 08:38:15;;;;;;;32.78;16.23;;;3.10;67.00;;;;;;5056610;28;20028;-74
2020/12/28 08:40:41;;;;;;;33.22;14.63;;;3.20;67.00;;;;;;5055003;28;20025;-74
2020/12/28 08:43:09;;;;;;;34.83;15.13;;;3.30;67.00;;;;;;5055727;28;20483;-73
2020/12/28 08:45:34;;;;;;;31.95;15.18;;;3.30;66.90;;;;;;5055825;28;20104;-74
2020/12/28 08:48:00;;;;;;;29.10;14.52;;;3.40;66.70;;;;;;5056216;28;20021;-77
2020/12/28 08:50:34;;;;;;;36.28;16.08;;;3.40;66.60;;;;;;5056243;28;20033;-74
2020/12/28 08:52:59;;;;;;;34.50;16.13;;;3.50;66.60;;;;;;5056143;28;20081;-74
2020/12/28 08:55:25;;;;;;;40.38;16.23;;;3.60;66.40;;;;;;5055863;28;20036;-74
2020/12/28 08:57:53;;;;;;;31.70;15.30;;;3.70;66.00;;;;;;5055646;28;20025;-74
2020/12/28 09:00:20;;;;;;;30.80;15.02;;;3.70;66.00;;;;;;5055343;28;20369;-74
2020/12/28 09:02:54;;;;;;;38.38;16.88;;;3.70;65.90;;;;;;5055557;28;20029;-74
2020/12/28 09:05:20;;;;;;;37.50;15.25;;;3.80;65.80;;;;;;5055605;28;20108;-76
2020/12/28 09:07:46;;;;;;;33.53;15.23;;;3.80;65.40;;;;;;5055704;28;20027;-75
2020/12/28 09:10:13;;;;;;;31.02;15.68;;;3.80;65.30;;;;;;5055149;28;20017;-75
2020/12/28 09:12:39;;;;;;;32.67;16.25;;;3.80;65.60;;;;;;5055173;28;20392;-74
2020/12/28 09:15:05;;;;;;;34.03;15.40;;;3.90;65.50;;;;;;5055588;28;20074;-74
2020/12/28 09:17:31;;;;;;;34.55;16.35;;;4.00;65.60;;;;;;5055526;28;20376;-75
2020/12/28 09:19:56;;;;;;;30.48;15.23;;;4.00;65.00;;;;;;5055660;28;20048;-73
2020/12/28 09:22:22;;;;;;;29.55;14.85;;;4.00;65.10;;;;;;5055239;28;20060;-75
2020/12/28 09:24:48;;;;;;;38.55;16.27;;;4.00;65.00;;;;;;5053779;28;20036;-74
2020/12/28 09:27:13;;;;;;;29.63;15.80;;;4.00;65.00;;;;;;5054269;28;20025;-74
2020/12/28 09:29:39;;;;;;;30.20;15.98;;;4.00;64.80;;;;;;5055728;28;20052;-74
2020/12/28 09:32:05;;;;;;;35.80;15.65;;;4.00;64.80;;;;;;5055512;28;20047;-74
2020/12/28 09:34:30;;;;;;;35.75;16.65;;;4.00;64.60;;;;;;5054100;28;20056;-74
2020/12/28 09:37:00;;;;;;;35.83;16.23;;;4.00;64.40;;;;;;5055018;28;20029;-74
2020/12/28 09:39:26;;;;;;;29.88;17.17;;;3.90;64.30;;;;;;5053933;28;20025;-74
2020/12/28 09:41:52;;;;;;;33.45;16.05;;;3.90;64.60;;;;;;5054939;28;20449;-74
2020/12/28 09:44:19;;;;;;;34.20;16.10;;;3.80;64.60;;;;;;5053744;28;20074;-75
2020/12/28 09:46:44;;;;;;;32.20;15.18;;;3.80;64.60;;;;;;5055031;28;20067;-75
2020/12/28 09:49:10;;;;;;;33.75;16.17;;;3.80;64.70;;;;;;5054935;28;20045;-75
2020/12/28 09:51:36;;;;;;;37.15;16.20;;;3.80;64.70;;;;;;5054694;28;20028;-75
2020/12/28 09:54:01;;;;;;;33.33;15.10;;;3.70;64.90;;;;;;5055139;28;20454;-75
2020/12/28 09:56:27;;;;;;;31.63;15.35;;;3.70;65.00;;;;;;5053582;28;20048;-75
2020/12/28 09:58:53;;;;;;;33.05;15.50;;;3.70;65.00;;;;;;5054544;28;20148;-75
2020/12/28 10:01:19;;;;;;;30.48;14.68;;;3.60;65.10;;;;;;5054812;28;20066;-75
2020/12/28 10:03:44;;;;;;;27.80;14.25;;;3.60;65.30;;;;;;5054539;28;20021;-75
2020/12/28 10:06:36;;;;;;;29.13;14.35;;;3.60;65.30;;;;;;5053534;28;20024;-74
2020/12/28 10:09:04;;;;;;;28.42;14.40;;;3.60;65.40;;;;;;5055301;28;20050;-74
2020/12/28 10:11:30;;;;;;;31.45;14.90;;;3.60;65.40;;;;;;5054470;28;20045;-75
2020/12/28 10:13:56;;;;;;;31.38;13.85;;;3.60;65.70;;;;;;5053533;28;20449;-74
2020/12/28 10:16:23;;;;;;;35.42;15.27;;;3.50;65.80;;;;;;5054785;28;20029;-74
2020/12/28 10:18:49;;;;;;;30.58;13.95;;;3.50;65.70;;;;;;5054871;28;20024;-76
2020/12/28 10:21:16;;;;;;;30.50;13.68;;;3.50;65.80;;;;;;5054341;28;20044;-76
2020/12/28 10:23:41;;;;;;;30.65;15.02;;;3.60;65.90;;;;;;5053528;28;20028;-75
2020/12/28 10:26:13;;;;;;;30.77;14.00;;;3.50;65.80;;;;;;5054108;28;20399;-75
2020/12/28 10:28:39;;;;;;;32.40;15.57;;;3.40;66.10;;;;;;5054800;28;20029;-75
2020/12/28 10:31:08;;;;;;;29.40;15.40;;;3.40;66.30;;;;;;5054382;28;20025;-75
2020/12/28 10:33:34;;;;;;;33.53;13.30;;;3.40;66.60;;;;;;5052854;28;20335;-77
2020/12/28 10:36:00;;;;;;;32.47;13.85;;;3.50;66.70;;;;;;5053430;28;20357;-75
2020/12/28 10:38:26;;;;;;;28.05;14.38;;;3.50;66.70;;;;;;5052867;28;20025;-75
2020/12/28 10:40:51;;;;;;;30.30;14.10;;;3.50;66.80;;;;;;5053974;28;20108;-75
2020/12/28 10:43:17;;;;;;;29.85;13.77;;;3.60;66.60;;;;;;5053950;28;20453;-75
2020/12/28 10:45:43;;;;;;;27.92;13.57;;;3.50;66.50;;;;;;5054047;28;20104;-75
2020/12/28 10:48:09;;;;;;;30.60;13.93;;;3.50;66.70;;;;;;5053550;28;20124;-75
2020/12/28 10:50:34;;;;;;;32.90;14.02;;;3.50;66.70;;;;;;5053367;28;20025;-75
2020/12/28 10:53:00;;;;;;;32.75;14.15;;;3.50;66.80;;;;;;5054256;28;20437;-75
2020/12/28 10:55:26;;;;;;;25.25;12.85;;;3.50;66.80;;;;;;5054017;28;20106;-76
2020/12/28 10:57:51;;;;;;;26.23;13.10;;;3.50;67.00;;;;;;5053514;28;20028;-75
2020/12/28 11:00:17;;;;;;;28.33;13.63;;;3.50;67.00;;;;;;5053323;28;20025;-75
2020/12/28 11:02:43;;;;;;;23.98;12.13;;;3.50;67.00;;;;;;5053596;28;20112;-75
2020/12/28 11:05:08;;;;;;;29.70;12.80;;;3.50;67.30;;;;;;5052345;28;20024;-76
2020/12/28 11:07:34;;;;;;;24.45;12.73;;;3.50;67.10;;;;;;5053879;28;20028;-74
2020/12/28 11:09:59;;;;;;;26.75;12.52;;;3.50;67.20;;;;;;5053309;28;20017;-74
2020/12/28 11:12:25;;;;;;;25.90;12.23;;;3.50;67.10;;;;;;5054266;28;20481;-74
2020/12/28 11:14:51;;;;;;;32.35;12.80;;;3.50;67.20;;;;;;5053941;28;20021;-75
2020/12/28 11:17:17;;;;;;;28.60;12.93;;;3.50;67.40;;;;;;5053154;28;20032;-76
2020/12/28 11:19:42;;;;;;;25.25;12.23;;;3.50;67.40;;;;;;5053350;28;20028;-75
2020/12/28 11:22:08;;;;;;;24.63;12.50;;;3.60;67.50;;;;;;5053823;28;20056;-74
2020/12/28 11:24:34;;;;;;;24.17;11.63;;;3.60;67.20;;;;;;5053358;28;20021;-74
2020/12/28 11:26:59;;;;;;;25.98;12.40;;;3.60;67.10;;;;;;5053856;28;20429;-74
2020/12/28 11:29:25;;;;;;;28.83;12.70;;;3.60;67.10;;;;;;5052081;28;20024;-75
2020/12/28 11:31:51;;;;;;;30.85;12.38;;;3.60;67.10;;;;;;5053094;28;20100;-76
2020/12/28 11:34:16;;;;;;;23.25;12.70;;;3.60;67.30;;;;;;5053438;28;20033;-73
2020/12/28 11:36:42;;;;;;;25.10;11.77;;;3.70;67.50;;;;;;5052904;28;20024;-74
2020/12/28 11:39:11;;;;;;;24.48;13.25;;;3.70;67.40;;;;;;5053404;28;20060;-75
2020/12/28 11:41:38;;;;;;;26.60;12.45;;;3.70;67.50;;;;;;5053475;28;20069;-75
2020/12/28 11:44:04;;;;;;;23.75;11.65;;;3.80;67.60;;;;;;5051944;28;20036;-74
2020/12/28 11:46:30;;;;;;;24.17;11.88;;;3.80;67.10;;;;;;5055002;28;20414;-74
2020/12/28 11:48:55;;;;;;;28.38;12.13;;;3.80;67.00;;;;;;5056453;28;20163;-73
2020/12/28 11:51:22;;;;;;;26.00;12.10;;;3.80;67.00;;;;;;5056936;28;20021;-74
2020/12/28 11:53:47;;;;;;;24.60;11.75;;;3.80;66.90;;;;;;5056233;28;20032;-74
2020/12/28 11:56:13;;;;;;;28.02;12.02;;;3.80;67.10;;;;;;5056865;28;20032;-73
2020/12/28 11:58:42;;;;;;;27.15;12.88;;;3.80;67.30;;;;;;5055717;28;20522;-73
2020/12/28 12:01:16;;;;;;;26.75;12.45;;;3.80;67.30;;;;;;5056136;28;20025;-74
2020/12/28 12:03:49;;;;;;;25.90;12.05;;;3.80;67.40;;;;;;5056729;28;20449;-74
2020/12/28 12:06:23;;;;;;;25.83;11.68;;;3.80;67.50;;;;;;5055681;28;20373;-75
2020/12/28 12:11:34;;;;;;;21.58;10.88;;;3.90;67.00;;;;;;5057432;28;20055;-75
2020/12/28 12:14:00;;;;;;;26.02;11.60;;;3.80;67.00;;;;;;5055591;28;20353;-75
2020/12/28 12:16:26;;;;;;;25.30;11.38;;;3.90;66.90;;;;;;5056830;28;20195;-75
2020/12/28 12:18:52;;;;;;;23.33;10.35;;;3.80;66.80;;;;;;5056545;28;20112;-74
2020/12/28 12:21:18;;;;;;;25.33;11.57;;;3.80;67.00;;;;;;5055362;28;20025;-73
2020/12/28 12:23:44;;;;;;;20.60;10.32;;;3.80;66.90;;;;;;5056679;28;20025;-72
2020/12/28 12:26:10;;;;;;;24.17;10.55;;;3.70;66.90;;;;;;5056846;28;20492;-73
2020/12/28 12:28:36;;;;;;;27.20;10.05;;;3.70;67.00;;;;;;5056439;28;20025;-75
2020/12/28 12:31:02;;;;;;;28.75;11.35;;;3.70;66.90;;;;;;5055833;28;20017;-73
2020/12/28 12:33:28;;;;;;;25.35;10.73;;;3.60;67.10;;;;;;5056366;28;20032;-74
2020/12/28 12:35:53;;;;;;;22.77;11.27;;;3.60;67.10;;;;;;5056095;28;20029;-75
2020/12/28 12:38:19;;;;;;;18.58;8.95;;;3.50;67.20;;;;;;5054964;28;20078;-74
2020/12/28 12:40:46;;;;;;;20.65;8.73;;;3.50;67.40;;;;;;5055450;28;20498;-73